createdAt,value
2023-03-26T00:03:08.892Z,1011.11
2023-03-26T00:08:10.052Z,1011.02
2023-03-26T00:13:13.232Z,1010.88
2023-03-26T00:18:12.304Z,1010.75
2023-03-26T00:23:13.482Z,1010.71
2023-03-26T00:28:14.554Z,1010.75
2023-03-26T00:33:15.748Z,1010.66
2023-03-26T00:38:16.805Z,1010.68
2023-03-26T00:43:18.921Z,1010.60
2023-03-26T00:48:18.085Z,1010.55
2023-03-26T00:53:19.279Z,1010.55
2023-03-26T00:58:20.454Z,1010.50
2023-03-26T01:03:27.608Z,1010.51
2023-03-26T01:08:22.583Z,1010.55
2023-03-26T01:13:23.683Z,1010.49
2023-03-26T01:18:24.910Z,1010.45
2023-03-26T01:23:26.132Z,1010.40
2023-03-26T01:28:27.258Z,1010.36
2023-03-26T01:33:28.494Z,1010.37
2023-03-26T01:38:29.743Z,1010.27
2023-03-26T01:43:30.947Z,1010.14
2023-03-26T01:48:32.147Z,1010.22
2023-03-26T01:53:33.367Z,1010.15
2023-03-26T01:58:34.592Z,1010.06
2023-03-26T02:03:35.850Z,1010.04
2023-03-26T02:08:37.036Z,1010.00
2023-03-26T02:13:38.177Z,1009.86
2023-03-26T02:18:39.371Z,1009.71
2023-03-26T02:23:40.504Z,1009.51
2023-03-26T02:28:41.677Z,1009.34
2023-03-26T02:33:42.897Z,1009.21
2023-03-26T02:38:44.055Z,1009.28
2023-03-26T02:43:45.191Z,1008.98
2023-03-26T02:48:46.317Z,1008.81
2023-03-26T02:53:47.421Z,1008.69
2023-03-26T02:58:48.573Z,1008.65
2023-03-26T03:03:49.713Z,1008.59
2023-03-26T03:08:50.881Z,1008.42
2023-03-26T03:13:52.037Z,1008.43
2023-03-26T03:18:53.195Z,1008.33
2023-03-26T03:23:54.436Z,1008.33
2023-03-26T03:28:55.585Z,1008.28
2023-03-26T03:33:56.707Z,1008.24
2023-03-26T03:38:57.864Z,1007.93
2023-03-26T03:43:59.062Z,1007.82
2023-03-26T03:49:00.213Z,1007.77
2023-03-26T03:54:01.374Z,1007.82
2023-03-26T03:59:02.510Z,1007.73
2023-03-26T04:04:03.712Z,1007.72
2023-03-26T04:09:04.850Z,1007.52
2023-03-26T04:14:07.025Z,1007.46
2023-03-26T04:19:06.148Z,1007.42
2023-03-26T04:24:07.309Z,1007.52
2023-03-26T04:29:09.556Z,1007.57
2023-03-26T04:34:09.112Z,1007.53
2023-03-26T04:39:08.213Z,1007.44
2023-03-26T04:44:09.406Z,1007.52
2023-03-26T04:49:10.537Z,1007.37
2023-03-26T04:54:11.750Z,1007.45
2023-03-26T04:59:11.939Z,1007.40
2023-03-26T05:04:13.203Z,1007.22
2023-03-26T05:09:14.452Z,1007.16
2023-03-26T05:14:15.585Z,1006.96
2023-03-26T05:19:16.719Z,1006.78
2023-03-26T05:24:18.914Z,1006.72
2023-03-26T05:29:17.951Z,1006.43
2023-03-26T05:34:19.141Z,1006.20
2023-03-26T05:39:20.248Z,1005.99
2023-03-26T05:44:21.430Z,1005.88
2023-03-26T05:49:22.571Z,1005.66
2023-03-26T05:54:23.745Z,1005.55
2023-03-26T05:59:25.280Z,1005.40
2023-03-26T06:04:24.497Z,1005.34
2023-03-26T06:09:25.552Z,1005.18
2023-03-26T06:14:26.763Z,1005.32
2023-03-26T06:19:27.928Z,1005.33
2023-03-26T06:24:29.068Z,1005.39
2023-03-26T06:29:30.248Z,1005.29
2023-03-26T06:34:31.378Z,1005.47
2023-03-26T06:39:32.559Z,1005.59
2023-03-26T06:44:33.707Z,1005.65
2023-03-26T06:49:34.905Z,1005.63
2023-03-26T06:54:36.034Z,1005.58
2023-03-26T06:59:37.211Z,1005.25
2023-03-26T07:04:38.373Z,1004.88
2023-03-26T07:09:38.540Z,1004.80
2023-03-26T07:14:39.675Z,1004.66
2023-03-26T07:19:40.867Z,1004.68
2023-03-26T07:24:42.032Z,1004.55
2023-03-26T07:29:43.463Z,1004.49
2023-03-26T07:34:44.641Z,1004.65
2023-03-26T07:39:45.759Z,1004.98
2023-03-26T07:44:46.821Z,1005.11
2023-03-26T07:49:48.013Z,1005.14
2023-03-26T07:54:49.165Z,1005.20
2023-03-26T07:59:50.360Z,1005.20
2023-03-26T08:04:51.701Z,1005.50
2023-03-26T08:09:52.940Z,1005.51
2023-03-26T08:14:55.041Z,1005.34
2023-03-26T08:19:54.626Z,1005.46
2023-03-26T08:24:53.714Z,1005.34
2023-03-26T08:29:54.852Z,1005.29
2023-03-26T08:34:56.043Z,1005.19
2023-03-26T08:39:57.185Z,1005.17
2023-03-26T08:44:58.347Z,1005.13
2023-03-26T08:49:59.480Z,1005.18
2023-03-26T08:55:00.640Z,1005.17
2023-03-26T09:00:02.934Z,1005.11
2023-03-26T09:05:02.257Z,1005.19
2023-03-26T09:10:03.368Z,1005.14
2023-03-26T09:15:05.521Z,1005.03
2023-03-26T09:20:04.717Z,1004.62
2023-03-26T09:25:06.801Z,1004.56
2023-03-26T09:30:06.963Z,1004.36
2023-03-26T09:35:07.184Z,1004.46
2023-03-26T09:40:06.258Z,1004.42
2023-03-26T09:45:08.396Z,1004.82
2023-03-26T09:50:07.499Z,1004.81
2023-03-26T09:55:08.714Z,1004.58
2023-03-26T10:00:09.822Z,1004.24
2023-03-26T10:05:11.993Z,1004.20
2023-03-26T10:10:11.182Z,1004.41
2023-03-26T10:15:12.286Z,1004.28
2023-03-26T10:20:13.433Z,1004.39
2023-03-26T10:25:14.541Z,1004.68
2023-03-26T10:30:15.725Z,1004.66
2023-03-26T10:35:16.963Z,1005.09
2023-03-26T10:40:18.073Z,1005.03
2023-03-26T10:45:19.211Z,1005.08
2023-03-26T10:50:23.077Z,1005.09
2023-03-26T10:55:21.535Z,1004.91
2023-03-26T11:00:21.623Z,1005.10
2023-03-26T11:05:22.784Z,1004.94
2023-03-26T11:10:23.959Z,1004.90
2023-03-26T11:15:25.036Z,1004.98
2023-03-26T11:20:26.185Z,1005.23
2023-03-26T11:25:27.341Z,1004.98
2023-03-26T11:30:28.436Z,1004.54
2023-03-26T11:35:40.295Z,1004.67
2023-03-26T11:40:29.480Z,1004.41
2023-03-26T11:45:30.790Z,1004.53
2023-03-26T11:50:30.961Z,1004.18
2023-03-26T11:55:32.168Z,1004.18
2023-03-26T12:00:33.386Z,1004.12
2023-03-26T12:05:34.552Z,1003.92
2023-03-26T12:10:35.676Z,1003.81
2023-03-26T12:15:36.849Z,1003.98
2023-03-26T12:20:37.965Z,1003.73
2023-03-26T12:25:39.242Z,1003.72
2023-03-26T12:30:40.372Z,1003.53
2023-03-26T12:35:41.526Z,1003.57
2023-03-26T12:40:42.652Z,1003.56
2023-03-26T12:45:43.907Z,1003.45
2023-03-26T12:50:45.197Z,1003.32
2023-03-26T12:55:46.616Z,1003.22
2023-03-26T13:00:47.992Z,1003.19
2023-03-26T13:05:49.162Z,1003.17
2023-03-26T13:10:50.271Z,1003.13
2023-03-26T13:15:52.536Z,1003.01
2023-03-26T13:20:51.807Z,1003.09
2023-03-26T13:25:52.941Z,1002.76
2023-03-26T13:30:54.488Z,1002.76
2023-03-26T13:36:00.635Z,1002.70
2023-03-26T13:40:53.986Z,1002.51
2023-03-26T13:45:55.419Z,1002.69
2023-03-26T13:50:57.038Z,1002.45
2023-03-26T13:55:56.445Z,1002.33
2023-03-26T14:00:58.156Z,1002.30
2023-03-26T14:05:57.591Z,1002.34
2023-03-26T14:10:58.679Z,1002.20
2023-03-26T14:15:59.874Z,1002.11
2023-03-26T14:21:01.012Z,1002.01
2023-03-26T14:26:02.124Z,1001.74
2023-03-26T14:31:04.333Z,1001.59
2023-03-26T14:36:03.649Z,1001.63
2023-03-26T14:41:05.918Z,1001.60
2023-03-26T14:46:05.091Z,1001.80
2023-03-26T14:51:06.269Z,1001.81
2023-03-26T14:56:07.629Z,1001.82
2023-03-26T15:01:09.182Z,1001.80
2023-03-26T15:06:08.707Z,1001.62
2023-03-26T15:11:11.835Z,1001.76
2023-03-26T15:16:09.143Z,1001.67
2023-03-26T15:21:10.497Z,1001.80
2023-03-26T15:26:10.741Z,1001.78
2023-03-26T15:31:09.853Z,1001.93
2023-03-26T15:36:11.005Z,1002.31
2023-03-26T15:41:11.580Z,1003.32
2023-03-26T15:46:13.111Z,1004.06
2023-03-26T15:51:12.643Z,1003.51
2023-03-26T15:56:11.816Z,1003.58
2023-03-26T16:01:13.079Z,1003.57
2023-03-26T16:06:14.424Z,1003.56
2023-03-26T16:11:16.584Z,1003.19
2023-03-26T16:16:15.968Z,1003.50
2023-03-26T16:21:32.095Z,1003.55
2023-03-26T16:26:18.315Z,1003.72
2023-03-26T16:31:23.423Z,1003.90
2023-03-26T16:36:17.899Z,1003.88
2023-03-26T16:41:19.232Z,1003.83
2023-03-26T16:46:21.714Z,1003.95
2023-03-26T16:51:23.117Z,1004.04
2023-03-26T16:56:23.542Z,1004.21
2023-03-26T17:01:22.998Z,1004.12
2023-03-26T17:06:22.941Z,1003.98
2023-03-26T17:11:24.302Z,1003.69
2023-03-26T17:16:25.707Z,1004.37
2023-03-26T17:21:27.216Z,1005.25
2023-03-26T17:26:26.686Z,1005.78
2023-03-26T17:31:26.244Z,1005.79
2023-03-26T17:36:27.494Z,1005.57
2023-03-26T17:41:27.970Z,1005.67
2023-03-26T17:46:29.493Z,1005.55
2023-03-26T17:51:30.599Z,1005.03
2023-03-26T17:56:27.682Z,1004.81
2023-03-26T18:01:31.010Z,1004.73
2023-03-26T18:06:35.002Z,1004.56
2023-03-26T18:11:30.488Z,1004.63
2023-03-26T18:16:32.069Z,1004.61
2023-03-26T18:21:32.570Z,1004.54
2023-03-26T18:26:32.066Z,1004.75
2023-03-26T18:31:31.633Z,1004.78
2023-03-26T18:36:31.165Z,1004.89
2023-03-26T18:41:30.783Z,1004.81
2023-03-26T18:46:30.349Z,1004.65
2023-03-26T18:51:31.697Z,1004.64
2023-03-26T18:56:29.475Z,1004.49
2023-03-26T19:01:29.071Z,1004.36
2023-03-26T19:06:28.598Z,1004.39
2023-03-26T19:11:28.187Z,1004.39
2023-03-26T19:16:27.831Z,1004.44
2023-03-26T19:21:27.299Z,1004.36
2023-03-26T19:26:26.922Z,1004.28
2023-03-26T19:31:26.458Z,1004.24
2023-03-26T19:36:25.860Z,1004.29
2023-03-26T19:41:28.301Z,1004.39
2023-03-26T19:46:27.689Z,1004.35
2023-03-26T19:51:29.183Z,1004.34
2023-03-26T19:56:29.670Z,1004.15
2023-03-26T20:01:31.035Z,1004.10
2023-03-26T20:06:42.302Z,1003.97
2023-03-26T20:11:30.735Z,1003.95
2023-03-26T20:16:32.268Z,1003.90
2023-03-26T20:21:31.663Z,1003.89
2023-03-26T20:26:33.005Z,1003.74
2023-03-26T20:31:34.470Z,1003.59
2023-03-26T20:36:35.687Z,1003.67
2023-03-26T20:41:36.522Z,1003.69
2023-03-26T20:46:35.714Z,1003.69
2023-03-26T20:51:35.842Z,1003.53
2023-03-26T20:56:37.172Z,1003.76
2023-03-26T21:01:38.779Z,1003.53
2023-03-26T21:06:38.144Z,1003.75
2023-03-26T21:11:39.240Z,1003.76
2023-03-26T21:16:40.362Z,1003.79
2023-03-26T21:21:42.438Z,1003.91
2023-03-26T21:26:41.933Z,1003.89
2023-03-26T21:31:41.197Z,1003.91
2023-03-26T21:36:42.258Z,1003.80
2023-03-26T21:41:43.447Z,1003.86
2023-03-26T21:46:44.514Z,1003.83
2023-03-26T21:51:45.855Z,1003.85
2023-03-26T21:56:46.984Z,1003.71
2023-03-26T22:01:48.186Z,1003.85
2023-03-26T22:06:49.408Z,1003.99
2023-03-26T22:11:49.483Z,1004.19
2023-03-26T22:16:50.546Z,1004.29
2023-03-26T22:21:51.765Z,1004.38
2023-03-26T22:26:52.868Z,1004.53
2023-03-26T22:31:54.195Z,1004.53
2023-03-26T22:36:55.290Z,1004.57
2023-03-26T22:41:56.419Z,1004.61
2023-03-26T22:46:57.626Z,1004.71
2023-03-26T22:51:58.778Z,1004.63
2023-03-26T22:56:59.916Z,1004.55
2023-03-26T23:02:01.103Z,1004.60
2023-03-26T23:07:02.226Z,1004.72
2023-03-26T23:12:03.330Z,1004.80
2023-03-26T23:17:04.467Z,1004.87
2023-03-26T23:22:06.738Z,1004.84
2023-03-26T23:27:05.845Z,1004.72
2023-03-26T23:32:24.099Z,1004.74
2023-03-26T23:37:06.936Z,1004.92
2023-03-26T23:42:08.056Z,1004.90
2023-03-26T23:47:09.176Z,1005.01
2023-03-26T23:52:10.326Z,1005.06
2023-03-26T23:57:11.625Z,1005.13
